Time;durP1;ratioP1;P1;durP2;ratioP2;P2;SDS_P1;SDS_P2;PMS_P1;PMS_P2;Temp;Humidity;BMP_temperature;BMP_pressure;BME280_temperature;BME280_humidity;BME280_pressure;Samples;Min_cycle;Max_cycle;Signal;HPM_P1;HPM_P2
2022/07/23 00:00:20;;;;;;;6.78;4.03;;;;;;;;;;4988881;28;20126;-75
2022/07/23 00:03:01;;;;;;;8.63;4.40;;;;;;;;;;4990186;28;20125;-71
2022/07/23 00:05:27;;;;;;;6.63;4.10;;;;;;;;;;4988356;28;20496;-73
2022/07/23 00:07:53;;;;;;;9.43;4.03;;;;;;;;;;4991773;28;20042;-72
2022/07/23 00:10:19;;;;;;;8.20;4.15;;;;;;;;;;4987965;28;20207;-72
2022/07/23 00:12:46;;;;;;;9.55;3.78;;;;;;;;;;4987564;28;20061;-71
2022/07/23 00:15:12;;;;;;;7.20;3.95;;;;;;;;;;4991323;28;20425;-75
2022/07/23 00:17:38;;;;;;;9.40;3.80;;;;;;;;;;4986795;28;20473;-71
2022/07/23 00:20:04;;;;;;;8.95;3.80;;;;;;;;;;4988323;28;20073;-71
2022/07/23 00:22:30;;;;;;;9.63;3.63;;;;;;;;;;4989027;28;20072;-73
2022/07/23 00:24:56;;;;;;;7.88;3.58;;;;;;;;;;4988380;28;20421;-71
2022/07/23 00:27:22;;;;;;;7.20;3.47;;;;;;;;;;4987454;28;20528;-74
2022/07/23 00:29:48;;;;;;;7.00;3.80;;;;;;;;;;4988128;28;20053;-72
2022/07/23 00:32:15;;;;;;;9.80;3.63;;;;;;;;;;4988279;28;20046;-72
2022/07/23 00:34:41;;;;;;;6.68;3.42;;;;;;;;;;4985886;28;20061;-71
2022/07/23 00:37:06;;;;;;;6.97;3.65;;;;;;;;;;4987461;28;20039;-72
2022/07/23 00:39:32;;;;;;;7.28;4.05;;;;;;;;;;4987762;28;20056;-73
2022/07/23 00:41:58;;;;;;;9.73;3.70;;;;;;;;;;4986715;28;20047;-69
2022/07/23 00:44:27;;;;;;;8.02;3.85;;;;;;;;;;4987544;28;20073;-70
2022/07/23 00:46:55;;;;;;;9.38;4.00;;;;;;;;;;4964511;28;20043;-75
2022/07/23 00:49:25;;;;;;;8.95;3.83;;;;;;;;;;4984303;28;20050;-73
2022/07/23 00:51:52;;;;;;;9.77;3.92;;;;;;;;;;4987492;28;20119;-72
2022/07/23 00:54:20;;;;;;;8.32;3.92;;;;;;;;;;4987269;28;20066;-71
2022/07/23 00:56:46;;;;;;;8.65;3.67;;;;;;;;;;4987780;28;20039;-71
2022/07/23 00:59:14;;;;;;;9.93;3.92;;;;;;;;;;4987134;28;20049;-74
2022/07/23 01:01:40;;;;;;;8.15;3.53;;;;;;;;;;4985903;28;20543;-71
2022/07/23 01:04:06;;;;;;;7.53;3.53;;;;;;;;;;5082618;28;20050;-71
2022/07/23 01:06:38;;;;;;;7.60;3.78;;;;;;;;;;4985081;28;20489;-71
2022/07/23 01:09:05;;;;;;;7.22;3.40;;;;;;;;;;4987464;28;20056;-71
2022/07/23 01:11:36;;;;;;;7.32;3.97;;;;;;;;;;4985731;28;20058;-70
2022/07/23 01:14:28;;;;;;;10.93;4.18;;;;;;;;;;4986944;28;20599;-71
2022/07/23 01:16:53;;;;;;;9.63;4.22;;;;;;;;;;4987697;28;20493;-71
2022/07/23 01:19:19;;;;;;;6.95;3.75;;;;;;;;;;4986417;28;20085;-73
2022/07/23 01:21:47;;;;;;;9.77;3.70;;;;;;;;;;4984592;28;20050;-70
2022/07/23 01:24:14;;;;;;;7.18;3.53;;;;;;;;;;4987393;28;20046;-73
2022/07/23 01:26:43;;;;;;;9.45;3.83;;;;;;;;;;4987525;28;20047;-71
2022/07/23 01:29:09;;;;;;;10.30;3.42;;;;;;;;;;4986249;28;20054;-71
2022/07/23 01:31:36;;;;;;;9.65;3.75;;;;;;;;;;4986107;28;20058;-72
2022/07/23 01:34:02;;;;;;;5.93;3.90;;;;;;;;;;4984359;28;20099;-69
2022/07/23 01:36:28;;;;;;;6.65;3.70;;;;;;;;;;4984136;28;20043;-70
2022/07/23 01:38:54;;;;;;;8.18;3.80;;;;;;;;;;4986642;28;20065;-71
2022/07/23 01:41:20;;;;;;;7.47;3.60;;;;;;;;;;4988470;28;20552;-72
2022/07/23 01:43:46;;;;;;;9.23;4.10;;;;;;;;;;4985384;28;20042;-71
2022/07/23 01:46:12;;;;;;;7.18;3.60;;;;;;;;;;4984497;28;20053;-71
2022/07/23 01:48:38;;;;;;;10.68;3.58;;;;;;;;;;4986059;28;20038;-69
2022/07/23 01:51:04;;;;;;;8.13;4.10;;;;;;;;;;4985421;28;20051;-71
2022/07/23 01:53:33;;;;;;;6.82;3.70;;;;;;;;;;4988283;28;20106;-72
2022/07/23 01:55:59;;;;;;;10.90;4.30;;;;;;;;;;4988813;28;20443;-71
2022/07/23 01:58:26;;;;;;;8.00;4.50;;;;;;;;;;4985138;28;20051;-69
2022/07/23 02:00:53;;;;;;;12.02;4.13;;;;;;;;;;4986975;28;20053;-70
2022/07/23 02:03:20;;;;;;;10.48;4.18;;;;;;;;;;4985965;28;20046;-72
2022/07/23 02:05:45;;;;;;;6.65;4.05;;;;;;;;;;4984497;28;20039;-72
2022/07/23 02:08:11;;;;;;;8.45;3.95;;;;;;;;;;4985210;28;20068;-72
2022/07/23 02:10:37;;;;;;;12.90;4.00;;;;;;;;;;4984911;28;20342;-70
2022/07/23 02:13:03;;;;;;;7.20;4.03;;;;;;;;;;4985780;28;20130;-71
2022/07/23 02:15:29;;;;;;;10.05;3.72;;;;;;;;;;4984830;28;20141;-71
2022/07/23 02:17:55;;;;;;;6.25;3.60;;;;;;;;;;4983018;28;20092;-71
2022/07/23 02:20:21;;;;;;;13.05;3.70;;;;;;;;;;4984450;28;20043;-69
2022/07/23 02:22:48;;;;;;;8.90;3.65;;;;;;;;;;4983592;28;20126;-69
2022/07/23 02:25:14;;;;;;;8.00;3.78;;;;;;;;;;4984622;28;20069;-69
2022/07/23 02:27:40;;;;;;;9.50;3.63;;;;;;;;;;4988793;28;20478;-70
2022/07/23 02:30:06;;;;;;;10.57;3.95;;;;;;;;;;4985853;28;20134;-71
2022/07/23 02:32:32;;;;;;;10.38;3.80;;;;;;;;;;4985845;28;20129;-71
2022/07/23 02:34:58;;;;;;;7.07;3.80;;;;;;;;;;4988211;28;20188;-71
2022/07/23 02:37:24;;;;;;;10.68;4.15;;;;;;;;;;4987579;28;20103;-70
2022/07/23 02:39:50;;;;;;;9.02;3.90;;;;;;;;;;4989034;28;20134;-70
2022/07/23 02:42:17;;;;;;;13.25;4.22;;;;;;;;;;4985410;28;20730;-70
2022/07/23 02:44:43;;;;;;;8.02;4.00;;;;;;;;;;4989722;28;20122;-72
2022/07/23 02:47:09;;;;;;;5.30;3.90;;;;;;;;;;4989870;28;20060;-68
2022/07/23 02:49:35;;;;;;;7.82;4.00;;;;;;;;;;4991391;28;20484;-69
2022/07/23 02:52:00;;;;;;;9.65;4.13;;;;;;;;;;4988698;28;20051;-71
2022/07/23 02:54:26;;;;;;;5.18;3.80;;;;;;;;;;4988353;28;20178;-71
2022/07/23 02:56:52;;;;;;;7.45;3.72;;;;;;;;;;4988442;28;20431;-71
2022/07/23 02:59:18;;;;;;;8.18;3.83;;;;;;;;;;4989526;28;20516;-71
2022/07/23 03:01:45;;;;;;;7.78;4.28;;;;;;;;;;4986696;28;20046;-73
2022/07/23 03:04:11;;;;;;;10.85;3.85;;;;;;;;;;4988355;28;20070;-72
2022/07/23 03:06:37;;;;;;;16.50;4.00;;;;;;;;;;4988675;28;20137;-71
2022/07/23 03:09:04;;;;;;;9.57;3.78;;;;;;;;;;4990663;28;20060;-70
2022/07/23 03:11:30;;;;;;;9.23;3.80;;;;;;;;;;4990940;28;20042;-72
2022/07/23 03:13:56;;;;;;;8.00;3.80;;;;;;;;;;4988721;28;20042;-70
2022/07/23 03:16:22;;;;;;;8.77;3.85;;;;;;;;;;4987437;28;20525;-71
2022/07/23 03:18:48;;;;;;;5.43;3.78;;;;;;;;;;4985563;28;20508;-68
2022/07/23 03:21:14;;;;;;;9.48;4.10;;;;;;;;;;4987444;28;20047;-70
2022/07/23 03:23:40;;;;;;;10.85;4.07;;;;;;;;;;4987628;28;20058;-71
2022/07/23 03:26:05;;;;;;;8.95;4.60;;;;;;;;;;4986094;28;20053;-71
2022/07/23 03:28:31;;;;;;;10.23;4.50;;;;;;;;;;4987763;28;20141;-71
2022/07/23 03:30:57;;;;;;;7.57;4.20;;;;;;;;;;4985759;28;20057;-70
2022/07/23 03:33:23;;;;;;;8.77;4.80;;;;;;;;;;4985869;28;20050;-71
2022/07/23 03:35:49;;;;;;;9.57;4.30;;;;;;;;;;4989322;28;20070;-70
2022/07/23 03:38:15;;;;;;;9.55;4.18;;;;;;;;;;4982553;28;20054;-72
2022/07/23 03:40:41;;;;;;;10.18;4.68;;;;;;;;;;4988048;28;20072;-71
2022/07/23 03:43:07;;;;;;;11.20;4.40;;;;;;;;;;4986853;28;20050;-69
2022/07/23 03:45:33;;;;;;;8.48;4.28;;;;;;;;;;4983356;28;20054;-69
2022/07/23 03:47:59;;;;;;;7.85;4.13;;;;;;;;;;4986651;28;20039;-71
2022/07/23 03:50:25;;;;;;;8.23;4.22;;;;;;;;;;4990908;28;20051;-70
2022/07/23 03:52:51;;;;;;;9.27;4.43;;;;;;;;;;4989614;28;20046;-69
2022/07/23 03:55:17;;;;;;;7.15;4.07;;;;;;;;;;4988539;28;20053;-71
2022/07/23 03:57:44;;;;;;;8.68;4.22;;;;;;;;;;4988818;28;20528;-71
2022/07/23 04:00:11;;;;;;;8.15;4.30;;;;;;;;;;4988005;28;20375;-68
2022/07/23 04:02:37;;;;;;;9.10;4.22;;;;;;;;;;4988309;28;20046;-72
2022/07/23 04:05:04;;;;;;;7.03;4.25;;;;;;;;;;4986368;28;20069;-71
2022/07/23 04:07:30;;;;;;;9.98;4.53;;;;;;;;;;4980705;28;20050;-69
2022/07/23 04:09:56;;;;;;;9.93;4.13;;;;;;;;;;4988241;28;20065;-71
2022/07/23 04:12:22;;;;;;;10.02;4.50;;;;;;;;;;4988589;28;20054;-70
2022/07/23 04:14:48;;;;;;;12.63;4.82;;;;;;;;;;4990796;28;20034;-70
2022/07/23 04:17:14;;;;;;;7.63;4.43;;;;;;;;;;4982925;28;20057;-71
2022/07/23 04:19:41;;;;;;;7.68;4.60;;;;;;;;;;4986761;28;20081;-69
2022/07/23 04:22:08;;;;;;;7.45;4.45;;;;;;;;;;4987136;28;20529;-70
2022/07/23 04:24:34;;;;;;;8.80;4.60;;;;;;;;;;4988398;28;20054;-71
2022/07/23 04:27:00;;;;;;;13.77;4.55;;;;;;;;;;4984023;28;20153;-70
2022/07/23 04:29:26;;;;;;;11.93;4.57;;;;;;;;;;4988287;28;20084;-71
2022/07/23 04:31:52;;;;;;;7.03;4.35;;;;;;;;;;4985198;28;20465;-70
2022/07/23 04:34:18;;;;;;;8.18;4.57;;;;;;;;;;4986372;28;20076;-69
2022/07/23 04:36:44;;;;;;;7.90;4.03;;;;;;;;;;5084247;28;20041;-71
2022/07/23 04:39:10;;;;;;;6.78;4.25;;;;;;;;;;4987172;28;20080;-69
2022/07/23 04:41:35;;;;;;;10.57;4.70;;;;;;;;;;4986930;28;20108;-70
2022/07/23 04:44:02;;;;;;;7.97;4.30;;;;;;;;;;4984714;28;20058;-71
2022/07/23 04:46:28;;;;;;;9.77;4.90;;;;;;;;;;4985923;28;20050;-74
2022/07/23 04:48:54;;;;;;;8.60;4.75;;;;;;;;;;4987198;28;20103;-71
2022/07/23 04:51:20;;;;;;;7.65;4.03;;;;;;;;;;4985724;28;20058;-70
2022/07/23 04:53:46;;;;;;;11.73;4.93;;;;;;;;;;4984839;28;20086;-71
2022/07/23 04:56:12;;;;;;;10.55;4.82;;;;;;;;;;4985494;28;20493;-71
2022/07/23 04:58:38;;;;;;;8.88;4.72;;;;;;;;;;4987625;28;20047;-71
2022/07/23 05:01:04;;;;;;;8.30;4.70;;;;;;;;;;4980731;28;21333;-72
2022/07/23 05:03:30;;;;;;;9.35;4.30;;;;;;;;;;4986355;28;20081;-72
2022/07/23 05:05:56;;;;;;;11.45;4.32;;;;;;;;;;4980941;28;20043;-70
2022/07/23 05:08:22;;;;;;;9.05;4.55;;;;;;;;;;4982206;28;20110;-70
2022/07/23 05:10:48;;;;;;;10.88;5.13;;;;;;;;;;4993406;28;20147;-73
2022/07/23 05:13:15;;;;;;;10.95;4.82;;;;;;;;;;4987125;28;20099;-73
2022/07/23 05:15:41;;;;;;;7.85;4.05;;;;;;;;;;4993872;28;20331;-71
2022/07/23 05:18:07;;;;;;;9.50;4.88;;;;;;;;;;5001797;28;20063;-70
2022/07/23 05:20:33;;;;;;;14.90;4.68;;;;;;;;;;4987913;28;20080;-72
2022/07/23 05:22:59;;;;;;;6.72;4.30;;;;;;;;;;4986482;28;20051;-74
2022/07/23 05:25:25;;;;;;;8.73;5.20;;;;;;;;;;4990944;28;20515;-80
2022/07/23 05:27:51;;;;;;;13.63;4.65;;;;;;;;;;4988142;28;20042;-78
2022/07/23 05:30:17;;;;;;;12.98;4.72;;;;;;;;;;4985438;28;20058;-79
2022/07/23 05:32:43;;;;;;;8.75;3.97;;;;;;;;;;4987521;28;20054;-76
2022/07/23 05:35:09;;;;;;;6.28;4.15;;;;;;;;;;4990338;28;20088;-76
2022/07/23 05:37:35;;;;;;;9.63;4.10;;;;;;;;;;4984065;28;20046;-68
2022/07/23 05:40:07;;;;;;;8.02;4.43;;;;;;;;;;4985282;28;20165;-71
2022/07/23 05:42:37;;;;;;;12.23;4.30;;;;;;;;;;4986807;28;20413;-74
2022/07/23 05:45:04;;;;;;;7.70;4.40;;;;;;;;;;4986697;28;20100;-77
2022/07/23 05:47:42;;;;;;;12.55;4.53;;;;;;;;;;4987427;28;20459;-76
2022/07/23 05:50:09;;;;;;;8.55;4.43;;;;;;;;;;4984325;28;20055;-73
2022/07/23 05:52:35;;;;;;;11.45;4.40;;;;;;;;;;4987370;28;20099;-77
2022/07/23 05:55:01;;;;;;;10.80;4.80;;;;;;;;;;4985261;28;20058;-77
2022/07/23 05:57:27;;;;;;;9.95;4.47;;;;;;;;;;4986237;28;20050;-76
2022/07/23 05:59:52;;;;;;;11.18;4.47;;;;;;;;;;4988418;28;20066;-76
2022/07/23 06:02:18;;;;;;;9.88;4.22;;;;;;;;;;4978001;28;20473;-78
2022/07/23 06:04:45;;;;;;;8.90;4.65;;;;;;;;;;4979265;28;20053;-77
2022/07/23 06:07:11;;;;;;;12.48;4.50;;;;;;;;;;4982591;28;20053;-72
2022/07/23 06:09:37;;;;;;;13.05;4.78;;;;;;;;;;4985114;28;20038;-72
2022/07/23 06:12:03;;;;;;;7.10;4.05;;;;;;;;;;4985579;28;20453;-74
2022/07/23 06:14:28;;;;;;;8.75;4.70;;;;;;;;;;4984391;28;20061;-75
2022/07/23 06:16:54;;;;;;;13.73;4.78;;;;;;;;;;4983828;28;20051;-74
2022/07/23 06:19:20;;;;;;;7.60;4.40;;;;;;;;;;4984592;28;20054;-74
2022/07/23 06:21:46;;;;;;;10.13;4.40;;;;;;;;;;4984970;28;20053;-74
2022/07/23 06:24:12;;;;;;;9.02;4.30;;;;;;;;;;4982796;28;20045;-73
2022/07/23 06:26:38;;;;;;;10.07;4.55;;;;;;;;;;4983973;28;20046;-74
2022/07/23 06:29:03;;;;;;;9.55;4.40;;;;;;;;;;4982941;28;20038;-73
2022/07/23 06:31:29;;;;;;;11.82;4.60;;;;;;;;;;4980456;28;20055;-75
2022/07/23 06:33:55;;;;;;;12.25;4.82;;;;;;;;;;4977158;28;20425;-72
2022/07/23 06:36:21;;;;;;;8.45;4.20;;;;;;;;;;4977903;28;20982;-73
2022/07/23 06:38:47;;;;;;;9.43;4.40;;;;;;;;;;4980210;28;20532;-73
2022/07/23 06:41:13;;;;;;;10.20;4.53;;;;;;;;;;4979845;28;20051;-74
2022/07/23 06:43:39;;;;;;;8.68;4.10;;;;;;;;;;4982300;28;20055;-72
2022/07/23 06:46:05;;;;;;;17.02;4.53;;;;;;;;;;4983868;28;20053;-74
2022/07/23 06:48:31;;;;;;;8.95;4.00;;;;;;;;;;4977829;28;20521;-75
2022/07/23 06:50:57;;;;;;;8.77;3.92;;;;;;;;;;4983917;28;20062;-75
2022/07/23 06:53:22;;;;;;;12.85;4.38;;;;;;;;;;4983257;28;20141;-74
2022/07/23 06:55:48;;;;;;;6.55;3.65;;;;;;;;;;4983099;28;20072;-75
2022/07/23 06:58:14;;;;;;;8.25;3.65;;;;;;;;;;4984005;28;20054;-73
2022/07/23 07:00:40;;;;;;;14.00;3.88;;;;;;;;;;4983157;28;20050;-74
2022/07/23 07:03:06;;;;;;;12.65;4.07;;;;;;;;;;4983345;28;20058;-74
2022/07/23 07:05:32;;;;;;;10.93;3.80;;;;;;;;;;4982296;28;20072;-73
2022/07/23 07:07:57;;;;;;;10.07;4.20;;;;;;;;;;4983678;28;20070;-73
2022/07/23 07:10:23;;;;;;;6.63;3.63;;;;;;;;;;4980395;28;20074;-74
2022/07/23 07:12:49;;;;;;;8.95;4.68;;;;;;;;;;4982765;28;20051;-74
2022/07/23 07:15:15;;;;;;;14.85;4.00;;;;;;;;;;4982900;28;20134;-75
2022/07/23 07:17:42;;;;;;;7.95;4.07;;;;;;;;;;4982013;28;20042;-71
2022/07/23 07:20:08;;;;;;;10.50;3.90;;;;;;;;;;4980258;28;20073;-71
2022/07/23 07:22:34;;;;;;;6.97;4.05;;;;;;;;;;4982571;28;20050;-75
2022/07/23 07:25:00;;;;;;;9.27;3.80;;;;;;;;;;4983123;28;20145;-71
2022/07/23 07:27:26;;;;;;;7.47;3.50;;;;;;;;;;4981546;28;20477;-72
2022/07/23 07:29:51;;;;;;;8.38;4.13;;;;;;;;;;4977955;28;20561;-75
2022/07/23 07:32:17;;;;;;;10.43;4.25;;;;;;;;;;4977721;28;20472;-75
2022/07/23 07:34:43;;;;;;;10.75;3.50;;;;;;;;;;4981806;28;20054;-73
2022/07/23 07:37:09;;;;;;;8.77;3.92;;;;;;;;;;4984640;28;20763;-75
2022/07/23 07:39:35;;;;;;;11.95;4.10;;;;;;;;;;4980474;28;20071;-79
2022/07/23 07:42:01;;;;;;;9.65;3.83;;;;;;;;;;4980095;28;20061;-75
2022/07/23 07:44:27;;;;;;;8.85;4.10;;;;;;;;;;4984988;28;20059;-77
2022/07/23 07:46:52;;;;;;;8.98;4.13;;;;;;;;;;4985040;28;20058;-72
2022/07/23 07:49:19;;;;;;;13.15;4.55;;;;;;;;;;4983234;28;20061;-77
2022/07/23 07:51:45;;;;;;;10.48;4.20;;;;;;;;;;4977225;28;20050;-75
2022/07/23 07:54:12;;;;;;;9.07;3.55;;;;;;;;;;4977172;28;20080;-76
2022/07/23 07:56:38;;;;;;;10.93;3.75;;;;;;;;;;4981086;28;20112;-75
2022/07/23 07:59:04;;;;;;;8.00;3.95;;;;;;;;;;4981238;28;20047;-77
2022/07/23 08:01:30;;;;;;;10.15;4.38;;;;;;;;;;4982760;28;20050;-77
2022/07/23 08:03:55;;;;;;;7.68;3.67;;;;;;;;;;4980971;28;20055;-75
2022/07/23 08:06:21;;;;;;;8.85;3.72;;;;;;;;;;4982688;28;20069;-76
2022/07/23 08:08:48;;;;;;;12.57;4.28;;;;;;;;;;4984005;28;20099;-75
2022/07/23 08:11:13;;;;;;;8.45;3.90;;;;;;;;;;4983272;28;20050;-77
2022/07/23 08:13:39;;;;;;;10.82;4.20;;;;;;;;;;4981549;28;20447;-75
2022/07/23 08:16:05;;;;;;;10.63;3.85;;;;;;;;;;4979273;28;20129;-77
2022/07/23 08:18:31;;;;;;;10.18;4.35;;;;;;;;;;4982138;28;20718;-75
2022/07/23 08:20:57;;;;;;;12.85;4.22;;;;;;;;;;4980684;28;20520;-78
2022/07/23 08:23:23;;;;;;;9.55;3.92;;;;;;;;;;4981330;28;20081;-75
2022/07/23 08:25:49;;;;;;;11.57;4.50;;;;;;;;;;4981084;28;20095;-76
2022/07/23 08:28:15;;;;;;;9.05;4.20;;;;;;;;;;4985690;28;20063;-81
2022/07/23 08:30:43;;;;;;;8.57;4.13;;;;;;;;;;4984817;28;20053;-77
2022/07/23 08:33:14;;;;;;;12.93;4.43;;;;;;;;;;4979670;28;20095;-75
2022/07/23 08:35:46;;;;;;;20.92;4.65;;;;;;;;;;4982417;28;20401;-77
2022/07/23 08:38:15;;;;;;;11.40;4.07;;;;;;;;;;4983547;28;20054;-79
2022/07/23 08:40:44;;;;;;;13.45;4.38;;;;;;;;;;4979791;28;20145;-78
2022/07/23 08:43:15;;;;;;;23.08;4.60;;;;;;;;;;4979597;28;20054;-71
2022/07/23 08:45:44;;;;;;;18.30;4.30;;;;;;;;;;4979090;28;20053;-72
2022/07/23 08:48:16;;;;;;;4.63;3.95;;;;;;;;;;4971565;28;20043;-66
2022/07/23 08:50:55;;;;;;;9.05;3.75;;;;;;;;;;4982237;28;20051;-70
2022/07/23 08:53:23;;;;;;;5.65;3.95;;;;;;;;;;4977748;28;20061;-69
2022/07/23 08:55:54;;;;;;;8.93;4.00;;;;;;;;;;4982928;28;20246;-72
2022/07/23 08:58:21;;;;;;;15.15;4.32;;;;;;;;;;4977922;28;20085;-72
2022/07/23 09:00:47;;;;;;;8.15;3.80;;;;;;;;;;4981183;28;20187;-71
2022/07/23 09:03:25;;;;;;;8.90;4.28;;;;;;;;;;4966982;28;20053;-70
2022/07/23 09:05:52;;;;;;;12.95;3.90;;;;;;;;;;4975878;28;20064;-71
2022/07/23 09:08:23;;;;;;;13.07;4.28;;;;;;;;;;4980490;28;20058;-70
2022/07/23 09:10:56;;;;;;;7.28;3.97;;;;;;;;;;4979646;28;20850;-71
2022/07/23 09:13:43;;;;;;;12.93;4.47;;;;;;;;;;4980921;28;20425;-73
2022/07/23 09:16:13;;;;;;;14.60;4.50;;;;;;;;;;4978341;28;20507;-68
2022/07/23 09:18:45;;;;;;;10.95;4.43;;;;;;;;;;4981360;28;20420;-69
2022/07/23 09:21:16;;;;;;;12.50;4.15;;;;;;;;;;4979151;28;20096;-67
2022/07/23 09:23:44;;;;;;;14.35;4.07;;;;;;;;;;4979230;28;20054;-67
2022/07/23 09:26:31;;;;;;;8.93;4.32;;;;;;;;;;4978828;28;20943;-69
2022/07/23 09:29:00;;;;;;;18.77;4.95;;;;;;;;;;4976558;28;20056;-71
2022/07/23 09:31:51;;;;;;;15.27;4.80;;;;;;;;;;4975144;28;20066;-66
2022/07/23 09:34:33;;;;;;;8.98;4.22;;;;;;;;;;4979044;28;20050;-72
2022/07/23 09:37:10;;;;;;;9.60;4.10;;;;;;;;;;4981594;28;20046;-73
2022/07/23 09:39:36;;;;;;;8.52;3.55;;;;;;;;;;4981268;28;20042;-72
2022/07/23 09:42:22;;;;;;;10.90;4.15;;;;;;;;;;4982717;28;20046;-70
2022/07/23 09:44:50;;;;;;;11.77;3.90;;;;;;;;;;4979639;28;20052;-73
2022/07/23 09:47:16;;;;;;;11.07;4.35;;;;;;;;;;4983897;28;20516;-73
2022/07/23 09:50:08;;;;;;;12.43;3.78;;;;;;;;;;4987400;28;20054;-71
2022/07/23 09:52:36;;;;;;;10.45;3.83;;;;;;;;;;4982547;28;20054;-75
2022/07/23 09:55:06;;;;;;;12.38;3.80;;;;;;;;;;4981719;28;20046;-75
2022/07/23 09:57:33;;;;;;;8.38;3.80;;;;;;;;;;4982656;28;20047;-75
2022/07/23 10:00:03;;;;;;;11.25;3.85;;;;;;;;;;4986109;28;20099;-74
2022/07/23 10:02:32;;;;;;;9.05;4.07;;;;;;;;;;4984033;28;20054;-72
2022/07/23 10:04:59;;;;;;;12.00;3.70;;;;;;;;;;4982599;28;20283;-73
2022/07/23 10:07:27;;;;;;;11.20;3.60;;;;;;;;;;4984069;28;20061;-73
2022/07/23 10:09:53;;;;;;;14.88;3.88;;;;;;;;;;4983331;28;20065;-71
2022/07/23 10:12:24;;;;;;;12.20;3.42;;;;;;;;;;4983528;28;20112;-74
2022/07/23 10:14:50;;;;;;;10.02;4.20;;;;;;;;;;4985121;28;20166;-72
2022/07/23 10:17:16;;;;;;;5.85;3.50;;;;;;;;;;4983256;28;20058;-71
2022/07/23 10:19:43;;;;;;;10.80;4.03;;;;;;;;;;4984540;28;20051;-74
2022/07/23 10:22:12;;;;;;;13.23;3.75;;;;;;;;;;4982434;28;20080;-74
2022/07/23 10:25:03;;;;;;;6.95;3.50;;;;;;;;;;4984297;28;20396;-74
2022/07/23 10:28:03;;;;;;;10.23;3.92;;;;;;;;;;4984969;28;20058;-71
2022/07/23 10:31:00;;;;;;;14.40;3.65;;;;;;;;;;4986557;28;20065;-74
2022/07/23 10:33:50;;;;;;;12.65;3.70;;;;;;;;;;4985926;28;20061;-73
2022/07/23 10:36:34;;;;;;;8.98;3.63;;;;;;;;;;4986975;28;20119;-74
2022/07/23 10:39:08;;;;;;;8.38;3.67;;;;;;;;;;4985401;28;20081;-73
2022/07/23 10:41:40;;;;;;;9.43;3.60;;;;;;;;;;4985164;28;20043;-74
2022/07/23 10:44:16;;;;;;;14.13;3.90;;;;;;;;;;4984651;28;20057;-74
2022/07/23 10:47:22;;;;;;;14.82;3.58;;;;;;;;;;4985316;28;20066;-72
2022/07/23 10:49:43;;;;;;;8.30;2.95;;;;;;;;;;4985049;28;20054;-73
2022/07/23 10:52:14;;;;;;;12.68;3.50;;;;;;;;;;4985004;28;20043;-73
2022/07/23 10:54:41;;;;;;;7.93;3.20;;;;;;;;;;4984633;28;20060;-75
2022/07/23 10:57:09;;;;;;;10.45;3.50;;;;;;;;;;4986711;28;20125;-73
2022/07/23 11:00:07;;;;;;;8.07;3.38;;;;;;;;;;4987609;28;20067;-72
2022/07/23 11:02:33;;;;;;;14.43;3.42;;;;;;;;;;4984948;28;20054;-72
2022/07/23 11:05:03;;;;;;;11.70;3.55;;;;;;;;;;4985585;28;20050;-71
2022/07/23 11:07:28;;;;;;;8.93;3.53;;;;;;;;;;4985738;28;20050;-72
2022/07/23 11:09:55;;;;;;;7.55;3.35;;;;;;;;;;4986083;28;20141;-72
2022/07/23 11:12:20;;;;;;;11.60;3.22;;;;;;;;;;4986284;28;20137;-71
2022/07/23 11:15:09;;;;;;;10.90;3.33;;;;;;;;;;4987340;28;20487;-71
2022/07/23 11:17:36;;;;;;;13.00;3.67;;;;;;;;;;4982574;28;20051;-72
2022/07/23 11:20:11;;;;;;;8.30;3.65;;;;;;;;;;4982074;28;20054;-75
2022/07/23 11:22:43;;;;;;;10.25;3.63;;;;;;;;;;4982000;28;20104;-76
2022/07/23 11:25:11;;;;;;;8.65;3.72;;;;;;;;;;4985677;28;20115;-72
2022/07/23 11:27:45;;;;;;;9.40;3.58;;;;;;;;;;4986217;28;20068;-72
2022/07/23 11:30:39;;;;;;;11.43;3.80;;;;;;;;;;4986359;28;20501;-72
2022/07/23 11:33:08;;;;;;;9.83;3.67;;;;;;;;;;4967926;28;20110;-72
2022/07/23 11:35:36;;;;;;;10.07;3.67;;;;;;;;;;4984077;28;20399;-71
2022/07/23 11:38:11;;;;;;;11.40;3.55;;;;;;;;;;4981216;28;20038;-75
2022/07/23 11:40:37;;;;;;;8.35;3.55;;;;;;;;;;4981307;28;20419;-73
2022/07/23 11:43:08;;;;;;;9.00;3.53;;;;;;;;;;4980105;28;20540;-71
2022/07/23 11:45:41;;;;;;;7.75;3.88;;;;;;;;;;4980149;28;20050;-74
2022/07/23 11:48:09;;;;;;;8.85;3.78;;;;;;;;;;4979847;28;20099;-73
2022/07/23 11:50:36;;;;;;;10.23;3.60;;;;;;;;;;4982015;28;20084;-73
2022/07/23 11:53:02;;;;;;;10.77;3.97;;;;;;;;;;4980287;28;20046;-70
2022/07/23 11:55:29;;;;;;;8.85;3.65;;;;;;;;;;4980975;28;20042;-72
2022/07/23 11:57:55;;;;;;;7.82;4.03;;;;;;;;;;4983159;28;20671;-72
2022/07/23 12:00:23;;;;;;;10.45;4.15;;;;;;;;;;4982093;28;21186;-72
2022/07/23 12:02:52;;;;;;;10.25;3.88;;;;;;;;;;4979644;28;20128;-72
2022/07/23 12:05:24;;;;;;;8.77;3.80;;;;;;;;;;4981623;28;21016;-70
2022/07/23 12:07:52;;;;;;;11.88;4.18;;;;;;;;;;4981262;28;20042;-73
2022/07/23 12:10:34;;;;;;;10.63;4.10;;;;;;;;;;4980448;28;20062;-72
2022/07/23 12:13:05;;;;;;;9.70;4.05;;;;;;;;;;4980887;28;20125;-72
2022/07/23 12:15:38;;;;;;;14.35;4.80;;;;;;;;;;4983457;28;20089;-71
2022/07/23 12:18:05;;;;;;;8.95;4.47;;;;;;;;;;4991955;28;20429;-75
2022/07/23 12:20:35;;;;;;;10.60;4.55;;;;;;;;;;4985302;28;20695;-72
2022/07/23 12:23:04;;;;;;;12.07;4.88;;;;;;;;;;4979865;28;20107;-72
2022/07/23 12:25:33;;;;;;;8.73;4.53;;;;;;;;;;4982250;28;20055;-74
2022/07/23 12:28:12;;;;;;;12.32;4.70;;;;;;;;;;4982818;28;20050;-73
2022/07/23 12:30:45;;;;;;;10.25;4.93;;;;;;;;;;4984649;28;20074;-74
2022/07/23 12:33:21;;;;;;;12.00;4.55;;;;;;;;;;4980853;28;20042;-74
2022/07/23 12:35:48;;;;;;;10.00;4.40;;;;;;;;;;4982902;28;20064;-73
2022/07/23 12:38:20;;;;;;;9.68;4.28;;;;;;;;;;4982110;28;20052;-71
2022/07/23 12:40:51;;;;;;;10.93;4.50;;;;;;;;;;4982829;28;20313;-74
2022/07/23 12:43:31;;;;;;;10.13;4.45;;;;;;;;;;4983796;28;20065;-72
2022/07/23 12:46:08;;;;;;;9.82;4.28;;;;;;;;;;4981359;28;20141;-71
2022/07/23 12:48:36;;;;;;;10.38;4.25;;;;;;;;;;4980388;28;20058;-73
2022/07/23 12:51:18;;;;;;;9.25;3.95;;;;;;;;;;4982906;28;20050;-73
2022/07/23 12:53:47;;;;;;;10.02;4.20;;;;;;;;;;4979918;28;20122;-70
2022/07/23 12:56:18;;;;;;;13.40;4.32;;;;;;;;;;4981490;28;20496;-73
2022/07/23 12:58:47;;;;;;;11.77;4.57;;;;;;;;;;4980885;28;20050;-72
2022/07/23 13:01:23;;;;;;;10.20;4.10;;;;;;;;;;4979359;28;20050;-72
2022/07/23 13:04:05;;;;;;;7.97;3.97;;;;;;;;;;4979928;28;20070;-72
2022/07/23 13:06:33;;;;;;;15.43;4.40;;;;;;;;;;4983588;28;20051;-72
2022/07/23 13:08:59;;;;;;;10.32;3.70;;;;;;;;;;4982120;28;20493;-73
2022/07/23 13:11:25;;;;;;;8.45;3.53;;;;;;;;;;4982480;28;20081;-73
2022/07/23 13:13:52;;;;;;;10.77;3.78;;;;;;;;;;4979926;28;20062;-70
2022/07/23 13:16:18;;;;;;;9.32;3.70;;;;;;;;;;4981167;28;20061;-71
2022/07/23 13:18:43;;;;;;;12.98;3.95;;;;;;;;;;4980420;28;20058;-70
2022/07/23 13:21:09;;;;;;;10.88;4.15;;;;;;;;;;4980654;28;20125;-74
2022/07/23 13:23:36;;;;;;;13.30;3.60;;;;;;;;;;4980275;28;20057;-71
2022/07/23 13:26:03;;;;;;;11.88;3.80;;;;;;;;;;4981560;28;20039;-74
2022/07/23 13:28:29;;;;;;;11.80;3.95;;;;;;;;;;4982907;28;20064;-72
2022/07/23 13:30:56;;;;;;;8.68;3.45;;;;;;;;;;4981561;28;20062;-73
2022/07/23 13:33:23;;;;;;;10.68;3.45;;;;;;;;;;4980347;28;20086;-72
2022/07/23 13:35:51;;;;;;;6.55;3.63;;;;;;;;;;4981148;28;20101;-74
2022/07/23 13:38:18;;;;;;;7.03;3.28;;;;;;;;;;4977105;28;20050;-73
2022/07/23 13:40:45;;;;;;;6.88;3.35;;;;;;;;;;4978729;28;20051;-71
2022/07/23 13:43:15;;;;;;;7.40;3.42;;;;;;;;;;4979301;28;20045;-73
2022/07/23 13:45:44;;;;;;;7.50;3.50;;;;;;;;;;4980701;28;20412;-70
2022/07/23 13:48:12;;;;;;;10.70;4.05;;;;;;;;;;4977673;28;20053;-72
2022/07/23 13:50:39;;;;;;;11.77;3.83;;;;;;;;;;4980048;28;20045;-74
2022/07/23 13:53:07;;;;;;;13.15;3.47;;;;;;;;;;4976588;28;20050;-72
2022/07/23 13:55:33;;;;;;;12.43;3.60;;;;;;;;;;4980036;28;20045;-70
2022/07/23 13:58:00;;;;;;;10.00;3.70;;;;;;;;;;4980483;28;20409;-71
2022/07/23 14:00:27;;;;;;;11.05;3.33;;;;;;;;;;4980782;28;20523;-72
2022/07/23 14:02:53;;;;;;;8.82;3.30;;;;;;;;;;4979471;28;20621;-72
2022/07/23 14:05:20;;;;;;;10.30;3.63;;;;;;;;;;4979631;28;20119;-71
2022/07/23 14:07:46;;;;;;;11.73;3.72;;;;;;;;;;4979618;28;20428;-75
2022/07/23 14:10:13;;;;;;;13.75;3.85;;;;;;;;;;4980250;28;20046;-73
2022/07/23 14:12:39;;;;;;;8.70;3.50;;;;;;;;;;4977448;28;20046;-72
2022/07/23 14:15:06;;;;;;;10.15;3.90;;;;;;;;;;4980991;28;20046;-75
2022/07/23 14:17:32;;;;;;;9.07;3.65;;;;;;;;;;4980619;28;20051;-76
2022/07/23 14:19:58;;;;;;;13.57;3.45;;;;;;;;;;4979948;28;20621;-73
2022/07/23 14:22:24;;;;;;;8.30;3.33;;;;;;;;;;4978574;28;20505;-74
2022/07/23 14:24:50;;;;;;;11.15;3.47;;;;;;;;;;4977353;28;20490;-73
2022/07/23 14:27:16;;;;;;;9.25;3.35;;;;;;;;;;4980512;28;20092;-72
2022/07/23 14:29:43;;;;;;;15.07;3.72;;;;;;;;;;4979723;28;20705;-75
2022/07/23 14:32:09;;;;;;;7.20;2.78;;;;;;;;;;4979108;28;20838;-72
2022/07/23 14:34:35;;;;;;;9.63;3.20;;;;;;;;;;4982255;28;20053;-74
2022/07/23 14:37:01;;;;;;;10.60;3.42;;;;;;;;;;4983303;28;20095;-72
2022/07/23 14:39:27;;;;;;;7.70;3.28;;;;;;;;;;4983338;28;20059;-74
2022/07/23 14:41:53;;;;;;;6.00;3.00;;;;;;;;;;4982648;28;20057;-74
2022/07/23 14:44:19;;;;;;;11.73;3.30;;;;;;;;;;4983762;28;20054;-72